Time;durP1;ratioP1;P1;durP2;ratioP2;P2;SDS_P1;SDS_P2;PMS_P1;PMS_P2;Temp;Humidity;BMP_temperature;BMP_pressure;BME280_temperature;BME280_humidity;BME280_pressure;Samples;Min_cycle;Max_cycle;Signal;HPM_P1;HPM_P2
2023/08/24 00:01:02;;;;;;;3.17;2.92;;;;;;;;;;5037391;28;20030;-69
2023/08/24 00:03:28;;;;;;;3.25;2.90;;;;;;;;;;5037158;28;20076;-69
2023/08/24 00:05:53;;;;;;;3.15;2.95;;;;;;;;;;5037091;28;20473;-60
2023/08/24 00:08:19;;;;;;;2.75;2.55;;;;;;;;;;5019659;28;20034;-60
2023/08/24 00:10:46;;;;;;;2.75;2.58;;;;;;;;;;5036985;28;20056;-61
2023/08/24 00:13:12;;;;;;;3.28;2.42;;;;;;;;;;5036936;28;20389;-60
2023/08/24 00:15:37;;;;;;;3.05;2.85;;;;;;;;;;5036925;28;20025;-60
2023/08/24 00:18:07;;;;;;;2.65;2.55;;;;;;;;;;5036890;28;20495;-59
2023/08/24 00:20:32;;;;;;;;;;;;;;;;;;5037466;28;20446;-64
2023/08/24 00:22:58;;;;;;;2.90;2.70;;;;;;;;;;5037103;28;20026;-64
2023/08/24 00:25:24;;;;;;;3.00;2.80;;;;;;;;;;5002651;28;20064;-64
2023/08/24 00:27:49;;;;;;;2.80;2.60;;;;;;;;;;5036997;28;20492;-64
2023/08/24 00:30:15;;;;;;;3.10;2.80;;;;;;;;;;5036635;28;20037;-63
2023/08/24 00:32:40;;;;;;;5.20;3.00;;;;;;;;;;5002553;28;20032;-63
2023/08/24 00:35:06;;;;;;;3.03;2.83;;;;;;;;;;5036840;28;20084;-62
2023/08/24 00:37:32;;;;;;;2.95;2.67;;;;;;;;;;5036810;28;20033;-62
2023/08/24 00:39:59;;;;;;;3.65;2.78;;;;;;;;;;5018787;28;20440;-61
2023/08/24 00:42:26;;;;;;;2.92;2.72;;;;;;;;;;5036277;28;20076;-61
2023/08/24 00:44:51;;;;;;;4.25;2.55;;;;;;;;;;5036658;28;20030;-60
2023/08/24 00:47:17;;;;;;;3.25;2.95;;;;;;;;;;5018600;28;20028;-59
2023/08/24 00:49:42;;;;;;;3.08;2.78;;;;;;;;;;5036534;28;20044;-61
2023/08/24 00:52:07;;;;;;;3.00;2.67;;;;;;;;;;5018425;28;20028;-59
2023/08/24 00:54:33;;;;;;;3.95;2.78;;;;;;;;;;5036509;28;20017;-60
2023/08/24 00:56:59;;;;;;;2.72;2.53;;;;;;;;;;5036160;28;20025;-59
2023/08/24 00:59:24;;;;;;;3.42;2.95;;;;;;;;;;5018399;28;20496;-60
2023/08/24 01:01:50;;;;;;;2.78;2.58;;;;;;;;;;5036273;28;20045;-60
2023/08/24 01:04:16;;;;;;;3.33;2.47;;;;;;;;;;5035725;28;20030;-60
2023/08/24 01:06:41;;;;;;;2.50;2.38;;;;;;;;;;5036261;28;20026;-61
2023/08/24 01:09:07;;;;;;;2.47;2.28;;;;;;;;;;5035975;28;20456;-62
2023/08/24 01:11:45;;;;;;;2.90;2.60;;;;;;;;;;5036169;28;20068;-62
2023/08/24 01:14:19;;;;;;;2.70;2.35;;;;;;;;;;5036118;28;20056;-62
2023/08/24 01:16:48;;;;;;;2.33;2.13;;;;;;;;;;5018072;28;20038;-62
2023/08/24 01:19:30;;;;;;;2.72;2.53;;;;;;;;;;5018098;28;20030;-62
2023/08/24 01:21:56;;;;;;;2.63;2.42;;;;;;;;;;5036007;28;20037;-70
2023/08/24 01:24:44;;;;;;;2.95;2.30;;;;;;;;;;5017880;28;20017;-70
2023/08/24 01:27:10;;;;;;;3.22;2.35;;;;;;;;;;5035617;28;20033;-68
2023/08/24 01:29:35;;;;;;;2.40;2.20;;;;;;;;;;5035620;28;20028;-68
2023/08/24 01:32:01;;;;;;;2.17;1.98;;;;;;;;;;5035832;28;20061;-68
2023/08/24 01:34:26;;;;;;;2.35;2.13;;;;;;;;;;5001456;28;20029;-68
2023/08/24 01:36:52;;;;;;;2.38;2.25;;;;;;;;;;5017709;28;20021;-68
2023/08/24 01:39:35;;;;;;;2.40;2.25;;;;;;;;;;5035428;28;20053;-68
2023/08/24 01:42:01;;;;;;;2.53;2.42;;;;;;;;;;5035678;28;20030;-68
2023/08/24 01:44:29;;;;;;;3.63;2.40;;;;;;;;;;5035494;28;20029;-68
2023/08/24 01:46:56;;;;;;;2.40;2.22;;;;;;;;;;5017800;28;20071;-68
2023/08/24 01:49:24;;;;;;;3.30;2.60;;;;;;;;;;5017991;28;20025;-68
2023/08/24 01:51:50;;;;;;;2.92;2.60;;;;;;;;;;5035673;28;20037;-68
2023/08/24 01:54:15;;;;;;;3.67;2.30;;;;;;;;;;5017773;28;20436;-68
2023/08/24 01:56:41;;;;;;;2.63;2.42;;;;;;;;;;5017352;28;20029;-68
2023/08/24 01:59:08;;;;;;;2.60;2.40;;;;;;;;;;5017301;28;20385;-68
2023/08/24 02:01:34;;;;;;;2.72;2.53;;;;;;;;;;5034849;28;20437;-68
2023/08/24 02:04:00;;;;;;;3.80;2.42;;;;;;;;;;5017753;28;20416;-68
2023/08/24 02:06:26;;;;;;;4.97;2.25;;;;;;;;;;5017128;28;20025;-68
2023/08/24 02:08:52;;;;;;;3.53;2.20;;;;;;;;;;5034801;28;20025;-68
2023/08/24 02:11:17;;;;;;;2.83;2.45;;;;;;;;;;5017068;28;20370;-68
2023/08/24 02:13:42;;;;;;;2.30;2.20;;;;;;;;;;5034986;28;20109;-69
2023/08/24 02:16:08;;;;;;;3.22;2.30;;;;;;;;;;5016323;28;20397;-70
2023/08/24 02:18:35;;;;;;;2.70;2.20;;;;;;;;;;5034655;28;20033;-70
2023/08/24 02:21:06;;;;;;;2.33;2.22;;;;;;;;;;5017198;28;20029;-69
2023/08/24 02:23:31;;;;;;;3.58;2.40;;;;;;;;;;5034821;28;20060;-68
2023/08/24 02:25:56;;;;;;;2.78;2.00;;;;;;;;;;5017142;28;20109;-68
2023/08/24 02:28:22;;;;;;;2.53;2.40;;;;;;;;;;5016724;28;20112;-68
2023/08/24 02:30:47;;;;;;;2.50;2.30;;;;;;;;;;5016671;28;20029;-67
2023/08/24 02:33:12;;;;;;;3.25;2.40;;;;;;;;;;5000280;28;20029;-69
2023/08/24 02:35:38;;;;;;;2.15;2.05;;;;;;;;;;5034616;28;20053;-69
2023/08/24 02:38:05;;;;;;;2.10;1.77;;;;;;;;;;5016588;28;20112;-71
2023/08/24 02:40:32;;;;;;;2.22;2.13;;;;;;;;;;5016687;28;20111;-71
2023/08/24 02:42:57;;;;;;;2.72;2.22;;;;;;;;;;5000010;28;20485;-67
2023/08/24 02:45:23;;;;;;;2.80;2.60;;;;;;;;;;5034431;28;20048;-68
2023/08/24 02:47:48;;;;;;;2.38;2.13;;;;;;;;;;5034120;28;20025;-68
2023/08/24 02:50:13;;;;;;;4.15;2.40;;;;;;;;;;5016294;28;20470;-68
2023/08/24 02:52:38;;;;;;;2.53;2.33;;;;;;;;;;5034336;28;20033;-68
2023/08/24 02:55:05;;;;;;;2.78;2.03;;;;;;;;;;5016281;28;20128;-68
2023/08/24 02:57:30;;;;;;;2.70;2.10;;;;;;;;;;5033971;28;20029;-68
2023/08/24 02:59:56;;;;;;;2.42;1.75;;;;;;;;;;5034111;28;20112;-68
2023/08/24 03:02:22;;;;;;;1.83;1.73;;;;;;;;;;5034440;28;20029;-69
2023/08/24 03:04:47;;;;;;;3.22;2.25;;;;;;;;;;5016215;28;20528;-69
2023/08/24 03:07:12;;;;;;;2.38;2.00;;;;;;;;;;5034102;28;20021;-69
2023/08/24 03:09:38;;;;;;;3.35;2.28;;;;;;;;;;5016188;28;20382;-69
2023/08/24 03:12:04;;;;;;;2.20;2.08;;;;;;;;;;5033769;28;20056;-70
2023/08/24 03:14:30;;;;;;;2.08;1.98;;;;;;;;;;5034016;28;20037;-71
2023/08/24 03:16:56;;;;;;;2.13;1.92;;;;;;;;;;5033731;28;20010;-71
2023/08/24 03:19:21;;;;;;;2.25;2.00;;;;;;;;;;5033652;28;20060;-71
2023/08/24 03:21:46;;;;;;;2.35;2.03;;;;;;;;;;5016723;28;20461;-70
2023/08/24 03:24:12;;;;;;;4.13;2.35;;;;;;;;;;5033870;28;20096;-70
2023/08/24 03:26:38;;;;;;;2.97;2.22;;;;;;;;;;5015889;28;20026;-70
2023/08/24 03:29:03;;;;;;;3.03;2.00;;;;;;;;;;5033861;28;20059;-66
2023/08/24 03:31:29;;;;;;;2.10;2.00;;;;;;;;;;5033812;28;20029;-69
2023/08/24 03:33:55;;;;;;;2.40;2.00;;;;;;;;;;5033521;28;20424;-67
2023/08/24 03:36:20;;;;;;;2.28;1.83;;;;;;;;;;5015799;28;20056;-66
2023/08/24 03:38:46;;;;;;;3.63;1.98;;;;;;;;;;5033431;28;20013;-69
2023/08/24 03:41:11;;;;;;;1.80;1.70;;;;;;;;;;5033688;28;20045;-69
2023/08/24 03:43:38;;;;;;;2.08;1.98;;;;;;;;;;5015616;28;20053;-69
2023/08/24 03:46:05;;;;;;;1.90;1.80;;;;;;;;;;5033288;28;20029;-69
2023/08/24 03:48:31;;;;;;;2.50;1.65;;;;;;;;;;5032402;28;20105;-61
2023/08/24 03:50:57;;;;;;;1.90;1.77;;;;;;;;;;5015364;28;20117;-61
2023/08/24 03:53:23;;;;;;;2.63;1.98;;;;;;;;;;5015943;28;20033;-61
2023/08/24 03:55:49;;;;;;;2.08;1.75;;;;;;;;;;5015871;28;20072;-61
2023/08/24 03:58:17;;;;;;;1.95;1.85;;;;;;;;;;5032579;28;20083;-61
2023/08/24 04:00:43;;;;;;;1.80;1.70;;;;;;;;;;5014878;28;20025;-61
2023/08/24 04:03:08;;;;;;;1.80;1.70;;;;;;;;;;5014741;28;20536;-61
2023/08/24 04:05:34;;;;;;;1.98;1.73;;;;;;;;;;5015216;28;20432;-69
2023/08/24 04:08:02;;;;;;;3.03;1.98;;;;;;;;;;5032679;28;20065;-68
2023/08/24 04:10:28;;;;;;;2.10;1.90;;;;;;;;;;5032729;28;20030;-61
2023/08/24 04:12:54;;;;;;;2.15;2.00;;;;;;;;;;5032681;28;20029;-69
2023/08/24 04:15:19;;;;;;;1.92;1.83;;;;;;;;;;5014875;28;20033;-68
2023/08/24 04:17:46;;;;;;;2.30;2.10;;;;;;;;;;5032402;28;20132;-69
2023/08/24 04:20:11;;;;;;;3.20;2.00;;;;;;;;;;4998483;28;20033;-69
2023/08/24 04:22:37;;;;;;;2.25;2.05;;;;;;;;;;5032409;28;20084;-68
2023/08/24 04:25:02;;;;;;;2.28;1.95;;;;;;;;;;5032613;28;20014;-69
2023/08/24 04:27:28;;;;;;;2.88;2.15;;;;;;;;;;4998503;28;20436;-69
2023/08/24 04:29:53;;;;;;;2.70;2.15;;;;;;;;;;5032514;28;20052;-68
2023/08/24 04:32:19;;;;;;;3.03;2.10;;;;;;;;;;5032223;28;20116;-68
2023/08/24 04:34:44;;;;;;;2.58;2.00;;;;;;;;;;5032142;28;20108;-69
2023/08/24 04:37:09;;;;;;;2.03;1.83;;;;;;;;;;5032175;28;20483;-69
2023/08/24 04:39:35;;;;;;;2.47;2.00;;;;;;;;;;5035670;28;20029;-69
2023/08/24 04:42:00;;;;;;;2.15;2.05;;;;;;;;;;5035732;28;20033;-69
2023/08/24 04:44:25;;;;;;;4.30;2.13;;;;;;;;;;5035930;28;20060;-69
2023/08/24 04:46:51;;;;;;;3.97;2.28;;;;;;;;;;5018133;28;20057;-69
2023/08/24 04:49:16;;;;;;;3.90;2.00;;;;;;;;;;5035771;28;20025;-69
2023/08/24 04:51:41;;;;;;;4.60;2.25;;;;;;;;;;5017654;28;20026;-69
2023/08/24 04:54:07;;;;;;;5.78;2.20;;;;;;;;;;5017876;28;20013;-69
2023/08/24 04:56:32;;;;;;;2.60;2.40;;;;;;;;;;5017940;28;20041;-69
2023/08/24 04:59:00;;;;;;;2.22;2.03;;;;;;;;;;5017903;28;20032;-69
2023/08/24 05:01:26;;;;;;;4.00;2.13;;;;;;;;;;5012263;28;20037;-69
2023/08/24 05:03:52;;;;;;;3.50;2.17;;;;;;;;;;5033875;28;20093;-69
2023/08/24 05:06:18;;;;;;;3.13;2.30;;;;;;;;;;5007908;28;20041;-69
2023/08/24 05:08:43;;;;;;;2.53;2.20;;;;;;;;;;5026915;28;20014;-69
2023/08/24 05:11:16;;;;;;;3.97;2.38;;;;;;;;;;5025462;28;20030;-71
2023/08/24 05:13:41;;;;;;;2.50;2.10;;;;;;;;;;5025386;28;20033;-69
2023/08/24 05:16:07;;;;;;;2.45;2.25;;;;;;;;;;5025127;28;20014;-69
2023/08/24 05:18:34;;;;;;;2.38;2.22;;;;;;;;;;5026798;28;20075;-69
2023/08/24 05:20:59;;;;;;;3.40;2.40;;;;;;;;;;5035470;28;20030;-66
2023/08/24 05:23:24;;;;;;;2.80;2.55;;;;;;;;;;5018229;28;20450;-65
2023/08/24 05:25:49;;;;;;;2.70;2.50;;;;;;;;;;5015271;28;20025;-66
2023/08/24 05:28:15;;;;;;;2.70;2.50;;;;;;;;;;5015113;28;20026;-66
2023/08/24 05:30:42;;;;;;;7.40;2.55;;;;;;;;;;5017630;28;20037;-59
2023/08/24 05:33:07;;;;;;;3.55;2.60;;;;;;;;;;5025873;28;20041;-66
2023/08/24 05:35:32;;;;;;;2.70;2.40;;;;;;;;;;5023861;28;20101;-66
2023/08/24 05:38:00;;;;;;;4.07;2.65;;;;;;;;;;5022314;28;20033;-66
2023/08/24 05:40:26;;;;;;;5.35;2.35;;;;;;;;;;5035478;28;20468;-66
2023/08/24 05:42:53;;;;;;;2.90;2.58;;;;;;;;;;5035681;28;20037;-59
2023/08/24 05:45:18;;;;;;;5.63;2.50;;;;;;;;;;5035598;28;20037;-59
2023/08/24 05:47:43;;;;;;;3.25;2.92;;;;;;;;;;5035609;28;20032;-59
2023/08/24 05:50:11;;;;;;;4.13;2.90;;;;;;;;;;5016808;28;20034;-59
2023/08/24 05:52:37;;;;;;;4.45;2.88;;;;;;;;;;5035846;28;20091;-59
2023/08/24 05:55:03;;;;;;;4.70;3.25;;;;;;;;;;5017348;28;20116;-59
2023/08/24 05:57:28;;;;;;;7.72;3.70;;;;;;;;;;5035053;28;20125;-59
2023/08/24 05:59:53;;;;;;;7.97;3.83;;;;;;;;;;5035201;28;20067;-59
2023/08/24 06:02:19;;;;;;;9.60;5.93;;;;;;;;;;5035096;28;20021;-59
2023/08/24 06:04:44;;;;;;;8.32;5.40;;;;;;;;;;5017740;28;20040;-59
2023/08/24 06:07:09;;;;;;;8.13;4.63;;;;;;;;;;5035043;28;20061;-59
2023/08/24 06:09:35;;;;;;;12.93;6.72;;;;;;;;;;5035091;28;20029;-59
2023/08/24 06:12:00;;;;;;;12.95;6.78;;;;;;;;;;5034758;28;20489;-59
2023/08/24 06:14:26;;;;;;;13.68;7.53;;;;;;;;;;5034662;28;20068;-59
2023/08/24 06:16:53;;;;;;;14.93;8.75;;;;;;;;;;5017295;28;20026;-59
2023/08/24 06:19:18;;;;;;;20.08;10.73;;;;;;;;;;5035269;28;20048;-59
2023/08/24 06:21:44;;;;;;;15.48;7.97;;;;;;;;;;5034612;28;20030;-59
2023/08/24 06:24:09;;;;;;;17.15;9.25;;;;;;;;;;5034785;28;20033;-59
2023/08/24 06:26:35;;;;;;;18.27;9.25;;;;;;;;;;5034765;28;20032;-59
2023/08/24 06:29:00;;;;;;;14.93;9.13;;;;;;;;;;5034729;28;20471;-59
2023/08/24 06:31:26;;;;;;;17.13;9.80;;;;;;;;;;5034365;28;20037;-59
2023/08/24 06:33:52;;;;;;;16.55;8.90;;;;;;;;;;5034905;28;20029;-59
2023/08/24 06:36:18;;;;;;;18.50;8.60;;;;;;;;;;5034232;28;20420;-59
2023/08/24 06:38:43;;;;;;;18.48;9.18;;;;;;;;;;5034852;28;20029;-59
2023/08/24 06:41:11;;;;;;;16.73;9.52;;;;;;;;;;5017182;28;20033;-59
2023/08/24 06:43:38;;;;;;;16.30;9.80;;;;;;;;;;5034142;28;20052;-59
2023/08/24 06:46:04;;;;;;;14.63;9.20;;;;;;;;;;5034578;28;20121;-59
2023/08/24 06:48:30;;;;;;;16.38;9.05;;;;;;;;;;5034136;28;20120;-59
2023/08/24 06:50:55;;;;;;;13.73;8.43;;;;;;;;;;5034627;28;20049;-59
2023/08/24 06:53:20;;;;;;;12.50;7.45;;;;;;;;;;5016388;28;20044;-59
2023/08/24 06:55:45;;;;;;;16.00;7.55;;;;;;;;;;5016860;28;20041;-59
2023/08/24 06:58:11;;;;;;;11.55;6.82;;;;;;;;;;5034118;28;20026;-59
2023/08/24 07:00:36;;;;;;;9.68;6.65;;;;;;;;;;5033599;28;20483;-59
2023/08/24 07:03:02;;;;;;;141.45;21.92;;;;;;;;;;5034451;28;20132;-59
2023/08/24 07:05:28;;;;;;;7.53;5.10;;;;;;;;;;5016751;28;20037;-59
2023/08/24 07:07:54;;;;;;;6.97;4.88;;;;;;;;;;5034387;28;20037;-59
2023/08/24 07:10:20;;;;;;;7.28;5.60;;;;;;;;;;5034311;28;20033;-59
2023/08/24 07:12:45;;;;;;;7.28;5.43;;;;;;;;;;5016792;28;20037;-59
2023/08/24 07:15:11;;;;;;;8.93;6.00;;;;;;;;;;5034007;28;20053;-59
2023/08/24 07:17:36;;;;;;;8.95;5.43;;;;;;;;;;5033890;28;20021;-59
2023/08/24 07:20:05;;;;;;;5.53;4.43;;;;;;;;;;5032329;28;20075;-59
2023/08/24 07:22:30;;;;;;;6.45;5.15;;;;;;;;;;5034266;28;20476;-59
2023/08/24 07:24:56;;;;;;;6.22;5.00;;;;;;;;;;5033796;28;20033;-59
2023/08/24 07:27:21;;;;;;;8.05;5.78;;;;;;;;;;5034158;28;20014;-59
2023/08/24 07:29:46;;;;;;;5.35;4.47;;;;;;;;;;5034037;28;20121;-59
2023/08/24 07:32:12;;;;;;;9.50;4.57;;;;;;;;;;5033924;28;20084;-61
2023/08/24 07:34:37;;;;;;;5.80;5.15;;;;;;;;;;5033983;28;20013;-61
2023/08/24 07:37:02;;;;;;;8.27;5.30;;;;;;;;;;5033730;28;20022;-59
2023/08/24 07:39:28;;;;;;;5.88;5.05;;;;;;;;;;5033992;28;20466;-59
2023/08/24 07:41:53;;;;;;;6.55;4.93;;;;;;;;;;5033201;28;20548;-59
2023/08/24 07:44:19;;;;;;;5.28;4.78;;;;;;;;;;5033809;28;20030;-59
2023/08/24 07:46:44;;;;;;;5.85;4.40;;;;;;;;;;5000270;28;20030;-59
2023/08/24 07:49:10;;;;;;;8.98;4.90;;;;;;;;;;5033876;28;20060;-59
2023/08/24 07:51:35;;;;;;;6.25;4.88;;;;;;;;;;5016034;28;20026;-59
2023/08/24 07:54:01;;;;;;;8.02;5.97;;;;;;;;;;5033923;28;20461;-59
2023/08/24 07:56:26;;;;;;;13.82;7.13;;;;;;;;;;5033111;28;20442;-59
2023/08/24 07:58:52;;;;;;;7.85;6.28;;;;;;;;;;5015727;28;20025;-59
2023/08/24 08:01:17;;;;;;;9.13;5.85;;;;;;;;;;4999829;28;20037;-59
2023/08/24 08:03:42;;;;;;;9.65;6.95;;;;;;;;;;5033422;28;20488;-59
2023/08/24 08:06:08;;;;;;;10.68;7.18;;;;;;;;;;5031897;28;20093;-59
2023/08/24 08:08:34;;;;;;;11.20;6.75;;;;;;;;;;5016724;28;20470;-59
2023/08/24 08:11:00;;;;;;;7.70;5.60;;;;;;;;;;5013796;28;20037;-59
2023/08/24 08:13:26;;;;;;;7.20;5.25;;;;;;;;;;5015233;28;20111;-59
2023/08/24 08:15:51;;;;;;;10.32;5.47;;;;;;;;;;5017619;28;20068;-59
2023/08/24 08:18:17;;;;;;;7.43;4.88;;;;;;;;;;5017212;28;20109;-59
2023/08/24 08:20:42;;;;;;;5.68;5.03;;;;;;;;;;5016666;28;20474;-59
2023/08/24 08:23:08;;;;;;;9.25;5.43;;;;;;;;;;5017328;28;20446;-59
2023/08/24 08:25:34;;;;;;;7.03;4.93;;;;;;;;;;5017531;28;20026;-59
2023/08/24 08:27:59;;;;;;;5.25;4.68;;;;;;;;;;5018605;28;20025;-59
2023/08/24 08:30:25;;;;;;;6.47;4.15;;;;;;;;;;5001414;28;20041;-59
2023/08/24 08:32:54;;;;;;;7.18;4.20;;;;;;;;;;5036409;28;20116;-59
2023/08/24 08:35:21;;;;;;;3.92;3.63;;;;;;;;;;5035818;28;20021;-59
2023/08/24 08:37:49;;;;;;;7.32;4.47;;;;;;;;;;5036221;28;20037;-59
2023/08/24 08:40:15;;;;;;;6.72;4.47;;;;;;;;;;5018818;28;20060;-59
2023/08/24 08:42:40;;;;;;;3.60;3.30;;;;;;;;;;5018682;28;20053;-59
2023/08/24 08:45:08;;;;;;;6.07;4.82;;;;;;;;;;5035600;28;20029;-59
2023/08/24 08:47:33;;;;;;;5.00;4.03;;;;;;;;;;5017383;28;20476;-59
2023/08/24 08:50:00;;;;;;;6.38;3.53;;;;;;;;;;5035927;28;20092;-59
2023/08/24 08:52:26;;;;;;;3.75;3.05;;;;;;;;;;5035880;28;20021;-59
2023/08/24 08:54:52;;;;;;;5.93;2.80;;;;;;;;;;5036239;28;20112;-59
2023/08/24 08:57:19;;;;;;;6.88;3.78;;;;;;;;;;5018737;28;20033;-59
2023/08/24 08:59:44;;;;;;;5.13;3.75;;;;;;;;;;5036463;28;20073;-59
2023/08/24 09:02:13;;;;;;;5.22;3.75;;;;;;;;;;5036641;28;20049;-59
2023/08/24 09:04:39;;;;;;;6.15;4.18;;;;;;;;;;5018845;28;20103;-59
2023/08/24 09:07:10;;;;;;;4.15;3.72;;;;;;;;;;5033443;28;20033;-59
2023/08/24 09:09:35;;;;;;;6.63;3.10;;;;;;;;;;5032009;28;20022;-59
2023/08/24 09:12:01;;;;;;;3.80;3.50;;;;;;;;;;5033184;28;20034;-59
2023/08/24 09:14:27;;;;;;;5.30;3.53;;;;;;;;;;5035840;28;20056;-59
2023/08/24 09:16:53;;;;;;;5.18;3.38;;;;;;;;;;5036221;28;20053;-59
2023/08/24 09:19:27;;;;;;;6.82;2.92;;;;;;;;;;5018059;28;20500;-59
2023/08/24 09:21:56;;;;;;;9.60;2.60;;;;;;;;;;5035953;28;20041;-59
2023/08/24 09:24:44;;;;;;;7.25;2.30;;;;;;;;;;5036060;28;20024;-59
2023/08/24 09:27:18;;;;;;;3.95;2.47;;;;;;;;;;5035975;28;20038;-59
2023/08/24 09:29:48;;;;;;;5.82;2.70;;;;;;;;;;5035893;28;20038;-59
2023/08/24 09:32:14;;;;;;;3.10;2.37;;;;;;;;;;5036082;28;20041;-59
2023/08/24 09:34:39;;;;;;;3.88;2.30;;;;;;;;;;5002098;28;20041;-66
2023/08/24 09:37:05;;;;;;;4.75;2.30;;;;;;;;;;5035752;28;20025;-66
2023/08/24 09:39:30;;;;;;;3.75;2.25;;;;;;;;;;5017880;28;20053;-66
2023/08/24 09:41:59;;;;;;;3.28;2.10;;;;;;;;;;5035431;28;20025;-59
2023/08/24 09:44:26;;;;;;;2.20;2.00;;;;;;;;;;5047460;23;20054;-66
2023/08/24 09:46:52;;;;;;;3.63;2.03;;;;;;;;;;5046108;23;20148;-66
2023/08/24 09:49:18;;;;;;;2.55;2.20;;;;;;;;;;5057985;23;20136;-66
2023/08/24 09:51:44;;;;;;;3.25;2.28;;;;;;;;;;5031924;28;20030;-60
2023/08/24 09:54:10;;;;;;;3.53;2.40;;;;;;;;;;5033086;28;20481;-65
2023/08/24 09:56:39;;;;;;;4.13;2.28;;;;;;;;;;5033306;28;20120;-66
2023/08/24 09:59:07;;;;;;;5.10;2.13;;;;;;;;;;5033488;28;20013;-59
2023/08/24 10:01:33;;;;;;;2.55;2.30;;;;;;;;;;5034477;28;20079;-59
2023/08/24 10:03:59;;;;;;;2.08;1.65;;;;;;;;;;5048779;23;20053;-65
2023/08/24 10:06:40;;;;;;;4.68;1.92;;;;;;;;;;5023200;23;20053;-59
2023/08/24 10:09:11;;;;;;;2.45;2.00;;;;;;;;;;4994376;28;20376;-59
2023/08/24 10:11:40;;;;;;;2.25;1.77;;;;;;;;;;4995761;28;20118;-59
2023/08/24 10:14:34;;;;;;;1.92;1.73;;;;;;;;;;4995980;28;20034;-59
2023/08/24 10:17:00;;;;;;;2.47;1.83;;;;;;;;;;4982545;28;20034;-66
2023/08/24 10:19:27;;;;;;;2.45;1.88;;;;;;;;;;4977880;28;20034;-65
2023/08/24 10:21:57;;;;;;;2.10;1.73;;;;;;;;;;4995288;28;20026;-65
2023/08/24 10:24:24;;;;;;;7.32;2.28;;;;;;;;;;4994332;23;20029;-65
2023/08/24 10:26:50;;;;;;;5.35;1.95;;;;;;;;;;5043582;23;20114;-68
2023/08/24 10:29:16;;;;;;;3.15;2.22;;;;;;;;;;5034521;28;20473;-68
2023/08/24 10:31:43;;;;;;;4.00;2.00;;;;;;;;;;5016923;28;20040;-68
2023/08/24 10:34:09;;;;;;;2.47;1.60;;;;;;;;;;5034929;28;20041;-68
2023/08/24 10:36:34;;;;;;;2.47;1.95;;;;;;;;;;5032545;28;20087;-68
2023/08/24 10:39:05;;;;;;;2.75;1.92;;;;;;;;;;5034680;28;20017;-68
2023/08/24 10:41:50;;;;;;;3.15;1.80;;;;;;;;;;5032975;28;20107;-68
2023/08/24 10:44:22;;;;;;;2.20;1.85;;;;;;;;;;5034524;28;20022;-68
2023/08/24 10:47:06;;;;;;;2.30;2.20;;;;;;;;;;5034435;28;20041;-66
2023/08/24 10:49:32;;;;;;;2.28;2.08;;;;;;;;;;5034414;28;20030;-59
2023/08/24 10:51:57;;;;;;;2.13;1.90;;;;;;;;;;5034824;28;20112;-59
2023/08/24 10:54:32;;;;;;;2.15;2.05;;;;;;;;;;5034363;28;20033;-59
2023/08/24 10:56:58;;;;;;;2.00;1.83;;;;;;;;;;5034270;28;20071;-59
2023/08/24 10:59:24;;;;;;;5.10;2.97;;;;;;;;;;5034015;28;20381;-59
2023/08/24 11:01:52;;;;;;;2.78;2.58;;;;;;;;;;5034216;28;20045;-59
2023/08/24 11:04:18;;;;;;;2.85;2.05;;;;;;;;;;5033001;28;20087;-59
2023/08/24 11:06:54;;;;;;;3.58;2.20;;;;;;;;;;5032704;28;20416;-59
2023/08/24 11:09:19;;;;;;;3.47;1.98;;;;;;;;;;5032542;28;20491;-59
2023/08/24 11:12:01;;;;;;;7.10;2.20;;;;;;;;;;5032517;28;20136;-59
2023/08/24 11:14:27;;;;;;;5.20;1.70;;;;;;;;;;5033031;28;20430;-59
2023/08/24 11:16:52;;;;;;;2.40;2.17;;;;;;;;;;5034085;28;20124;-59
2023/08/24 11:19:18;;;;;;;2.40;2.20;;;;;;;;;;5033811;28;20104;-59
2023/08/24 11:21:44;;;;;;;2.15;2.05;;;;;;;;;;5032853;28;20041;-59
2023/08/24 11:24:10;;;;;;;4.47;2.25;;;;;;;;;;5034024;28;20427;-60
2023/08/24 11:26:39;;;;;;;2.50;2.30;;;;;;;;;;5033470;28;20029;-59
2023/08/24 11:29:05;;;;;;;2.53;2.03;;;;;;;;;;5034182;28;20029;-59
2023/08/24 11:31:30;;;;;;;2.42;2.20;;;;;;;;;;5033024;28;20021;-59
2023/08/24 11:33:56;;;;;;;2.45;2.28;;;;;;;;;;5034022;28;20484;-59
2023/08/24 11:36:23;;;;;;;2.28;2.08;;;;;;;;;;5016141;28;20033;-59
2023/08/24 11:38:49;;;;;;;2.80;1.95;;;;;;;;;;5033565;28;20017;-59
2023/08/24 11:41:16;;;;;;;2.47;1.83;;;;;;;;;;5034140;28;20059;-59
2023/08/24 11:43:42;;;;;;;3.78;1.98;;;;;;;;;;5033486;28;20505;-59
2023/08/24 11:46:07;;;;;;;2.67;2.05;;;;;;;;;;5016282;28;20116;-59
2023/08/24 11:48:33;;;;;;;12.60;8.55;;;;;;;;;;5035506;28;20037;-59
2023/08/24 11:50:58;;;;;;;3.53;2.45;;;;;;;;;;5037874;28;20064;-59
2023/08/24 11:53:24;;;;;;;3.53;2.20;;;;;;;;;;5037677;28;20071;-59
2023/08/24 11:55:52;;;;;;;4.85;2.60;;;;;;;;;;5037781;28;20035;-59
2023/08/24 11:58:17;;;;;;;2.95;2.03;;;;;;;;;;5037740;28;20061;-59
2023/08/24 12:00:43;;;;;;;4.18;2.15;;;;;;;;;;5038084;28;20071;-59
2023/08/24 12:03:10;;;;;;;2.50;2.20;;;;;;;;;;5037696;28;20136;-59
2023/08/24 12:05:36;;;;;;;3.15;2.20;;;;;;;;;;5037365;28;20037;-59
2023/08/24 12:08:01;;;;;;;2.72;2.10;;;;;;;;;;5035939;28;20416;-59
2023/08/24 12:10:27;;;;;;;4.18;2.50;;;;;;;;;;5037960;28;20052;-59
2023/08/24 12:13:03;;;;;;;3.60;2.10;;;;;;;;;;5035898;28;20393;-59
2023/08/24 12:15:29;;;;;;;2.17;1.85;;;;;;;;;;5019932;28;20465;-59
2023/08/24 12:17:54;;;;;;;2.17;2.08;;;;;;;;;;5037540;28;20021;-59
2023/08/24 12:20:23;;;;;;;2.78;1.90;;;;;;;;;;5035931;28;20033;-59
2023/08/24 12:22:52;;;;;;;3.05;1.98;;;;;;;;;;5036908;28;20100;-59
2023/08/24 12:25:18;;;;;;;2.20;1.95;;;;;;;;;;5037454;28;20030;-59
2023/08/24 12:27:43;;;;;;;2.72;1.98;;;;;;;;;;5036835;28;20077;-59
2023/08/24 12:30:10;;;;;;;3.90;2.10;;;;;;;;;;5036663;28;20018;-59
2023/08/24 12:32:46;;;;;;;3.20;2.10;;;;;;;;;;5036963;28;20057;-59
2023/08/24 12:35:14;;;;;;;8.32;2.42;;;;;;;;;;5037045;28;20575;-59
2023/08/24 12:37:40;;;;;;;15.77;2.95;;;;;;;;;;5036857;28;20021;-59
2023/08/24 12:40:06;;;;;;;4.38;2.03;;;;;;;;;;5036590;28;20032;-59
2023/08/24 12:42:31;;;;;;;2.92;2.00;;;;;;;;;;5036756;28;20022;-59
2023/08/24 12:44:57;;;;;;;2.15;1.95;;;;;;;;;;5036515;28;20025;-65
2023/08/24 12:47:22;;;;;;;2.40;2.20;;;;;;;;;;5036579;28;20034;-59
2023/08/24 12:49:48;;;;;;;1.83;1.73;;;;;;;;;;5036485;28;20087;-59
2023/08/24 12:52:13;;;;;;;2.80;2.03;;;;;;;;;;5036627;28;20025;-59
2023/08/24 12:54:39;;;;;;;2.53;2.33;;;;;;;;;;5035005;28;20044;-59
2023/08/24 12:57:04;;;;;;;3.10;1.98;;;;;;;;;;5036563;28;20032;-59
2023/08/24 12:59:29;;;;;;;2.17;2.05;;;;;;;;;;5035760;28;20431;-59
2023/08/24 13:01:54;;;;;;;2.58;2.38;;;;;;;;;;5036464;28;20026;-59
2023/08/24 13:04:20;;;;;;;4.05;2.08;;;;;;;;;;5034775;28;20557;-59
2023/08/24 13:06:45;;;;;;;2.97;2.33;;;;;;;;;;5036386;28;20018;-59
2023/08/24 13:09:11;;;;;;;2.20;1.92;;;;;;;;;;5036433;28;20025;-59
2023/08/24 13:11:37;;;;;;;2.28;2.00;;;;;;;;;;5034763;28;20504;-59
2023/08/24 13:14:02;;;;;;;3.47;2.60;;;;;;;;;;5018332;28;20029;-59
2023/08/24 13:16:28;;;;;;;3.85;2.20;;;;;;;;;;5036406;28;20536;-59
2023/08/24 13:18:53;;;;;;;2.10;1.88;;;;;;;;;;5035970;28;20477;-59
2023/08/24 13:21:20;;;;;;;3.88;1.80;;;;;;;;;;5035802;28;20033;-59
2023/08/24 13:23:46;;;;;;;2.22;2.00;;;;;;;;;;5018140;28;20055;-59
2023/08/24 13:26:23;;;;;;;3.47;2.30;;;;;;;;;;5035858;28;20060;-59
2023/08/24 13:28:48;;;;;;;2.92;2.15;;;;;;;;;;5036469;28;20068;-59
2023/08/24 13:31:13;;;;;;;2.53;2.30;;;;;;;;;;5018259;28;20065;-59
2023/08/24 13:33:39;;;;;;;2.88;2.28;;;;;;;;;;5034695;28;20053;-59
2023/08/24 13:36:06;;;;;;;4.88;2.10;;;;;;;;;;5018454;28;20429;-59
2023/08/24 13:38:31;;;;;;;4.47;2.30;;;;;;;;;;5001540;28;20045;-59
2023/08/24 13:40:58;;;;;;;3.80;2.30;;;;;;;;;;5035567;28;20519;-59
2023/08/24 13:43:24;;;;;;;2.83;2.33;;;;;;;;;;5035429;28;20451;-59
2023/08/24 13:45:49;;;;;;;1.90;1.80;;;;;;;;;;5047032;23;20091;-59
2023/08/24 13:48:14;;;;;;;3.85;2.65;;;;;;;;;;5035591;28;20129;-65
2023/08/24 13:50:49;;;;;;;2.83;2.47;;;;;;;;;;5035062;28;20065;-66
2023/08/24 13:53:14;;;;;;;3.20;2.17;;;;;;;;;;5035724;28;20429;-65
2023/08/24 13:55:40;;;;;;;2.75;2.55;;;;;;;;;;5032690;28;20025;-65
2023/08/24 13:58:05;;;;;;;3.10;2.47;;;;;;;;;;5034215;28;20084;-68
2023/08/24 14:00:30;;;;;;;3.03;2.10;;;;;;;;;;5034884;28;20540;-67
2023/08/24 14:02:56;;;;;;;2.83;2.38;;;;;;;;;;5035122;28;20021;-67
2023/08/24 14:05:23;;;;;;;2.22;2.03;;;;;;;;;;5034446;28;20481;-67
2023/08/24 14:07:48;;;;;;;3.17;2.33;;;;;;;;;;5033924;28;20469;-67
2023/08/24 14:10:14;;;;;;;2.40;2.20;;;;;;;;;;5033742;28;20030;-67
2023/08/24 14:12:39;;;;;;;4.03;2.33;;;;;;;;;;5016501;28;20106;-67
2023/08/24 14:15:06;;;;;;;2.80;2.50;;;;;;;;;;5034136;28;20029;-67
2023/08/24 14:17:31;;;;;;;3.25;2.72;;;;;;;;;;5033432;28;20021;-67
2023/08/24 14:19:56;;;;;;;3.83;2.33;;;;;;;;;;5032730;28;20132;-68
2023/08/24 14:22:21;;;;;;;3.30;2.45;;;;;;;;;;5033227;28;20499;-67
2023/08/24 14:24:47;;;;;;;3.92;2.17;;;;;;;;;;5033362;28;20021;-67
2023/08/24 14:27:12;;;;;;;4.00;2.35;;;;;;;;;;5033300;28;20495;-67
2023/08/24 14:29:37;;;;;;;11.00;3.35;;;;;;;;;;5033893;28;20108;-68
2023/08/24 14:32:03;;;;;;;2.38;2.15;;;;;;;;;;5016196;28;20033;-68
2023/08/24 14:34:28;;;;;;;2.65;2.22;;;;;;;;;;5034705;28;20416;-68
2023/08/24 14:36:53;;;;;;;2.72;2.47;;;;;;;;;;5034685;28;20113;-68
2023/08/24 14:39:19;;;;;;;3.25;2.17;;;;;;;;;;5034349;28;20366;-68